Time;durP1;ratioP1;P1;durP2;ratioP2;P2;SDS_P1;SDS_P2;PMS_P1;PMS_P2;Temp;Humidity;BMP_temperature;BMP_pressure;BME280_temperature;BME280_humidity;BME280_pressure;Samples;Min_cycle;Max_cycle;Signal;HPM_P1;HPM_P2
2023/08/09 00:00:05;;;;;;;0.80;0.30;;;17.90;99.90;;;;;;5053206;28;20521;-83
2023/08/09 00:02:30;;;;;;;1.05;0.35;;;17.90;99.90;;;;;;5053120;28;20055;-83
2023/08/09 00:04:56;;;;;;;0.98;0.40;;;18.00;99.90;;;;;;5052157;28;20466;-83
2023/08/09 00:07:22;;;;;;;0.88;0.40;;;18.00;99.90;;;;;;5035422;28;20036;-84
2023/08/09 00:09:47;;;;;;;1.17;0.50;;;18.00;99.90;;;;;;5053431;28;20032;-84
2023/08/09 00:12:13;;;;;;;1.08;0.52;;;18.00;99.90;;;;;;5052953;28;20036;-84
2023/08/09 00:14:39;;;;;;;0.63;0.30;;;18.00;99.90;;;;;;5051890;28;20045;-83
2023/08/09 00:17:04;;;;;;;1.40;0.30;;;18.00;99.90;;;;;;5068722;28;20037;-83
2023/08/09 00:19:30;;;;;;;0.40;0.20;;;18.00;99.90;;;;;;5052843;28;20067;-83
2023/08/09 00:21:56;;;;;;;0.65;0.30;;;18.00;99.90;;;;;;5051976;28;20032;-83
2023/08/09 00:24:21;;;;;;;1.08;0.30;;;18.10;99.90;;;;;;5053476;28;20381;-83
2023/08/09 00:26:47;;;;;;;0.80;0.40;;;18.10;99.90;;;;;;5051890;28;20060;-84
2023/08/09 00:29:12;;;;;;;0.60;0.20;;;18.10;99.90;;;;;;5051940;28;20094;-84
2023/08/09 00:31:38;;;;;;;1.90;0.22;;;18.10;99.90;;;;;;5052889;28;20036;-85
2023/08/09 00:34:06;;;;;;;1.70;0.30;;;18.10;99.90;;;;;;5053831;28;20037;-84
2023/08/09 00:36:31;;;;;;;0.40;0.20;;;18.20;99.90;;;;;;5055489;28;20033;-85
2023/08/09 00:38:57;;;;;;;0.60;0.30;;;18.20;99.90;;;;;;5053789;28;20040;-84
2023/08/09 00:41:23;;;;;;;0.73;0.20;;;18.30;99.90;;;;;;5052430;28;20033;-83
2023/08/09 00:43:48;;;;;;;0.50;0.28;;;18.20;99.90;;;;;;5051733;28;20037;-83
2023/08/09 00:46:14;;;;;;;0.55;0.22;;;18.30;99.90;;;;;;5052780;28;20047;-83
2023/08/09 00:48:39;;;;;;;0.93;0.52;;;18.30;99.90;;;;;;5052618;28;20081;-84
2023/08/09 00:51:05;;;;;;;1.40;0.30;;;18.30;99.90;;;;;;5051630;28;20029;-84
2023/08/09 00:53:31;;;;;;;0.88;0.32;;;18.30;99.90;;;;;;5052695;28;20025;-83
2023/08/09 00:55:57;;;;;;;0.70;0.47;;;18.30;99.90;;;;;;5051227;28;20121;-83
2023/08/09 00:58:23;;;;;;;0.88;0.43;;;18.20;99.90;;;;;;5034943;28;20167;-83
2023/08/09 01:00:49;;;;;;;0.65;0.38;;;18.20;99.90;;;;;;5053054;28;20041;-81
2023/08/09 01:03:15;;;;;;;0.88;0.32;;;18.20;99.90;;;;;;5053608;28;20060;-81
2023/08/09 01:05:55;;;;;;;1.08;0.47;;;18.20;99.90;;;;;;5053342;28;20059;-81
2023/08/09 01:08:34;;;;;;;1.00;0.60;;;18.20;99.90;;;;;;5053763;28;20033;-81
2023/08/09 01:11:17;;;;;;;0.70;0.57;;;18.20;99.90;;;;;;5052015;28;20424;-81
2023/08/09 01:13:45;;;;;;;0.70;0.40;;;18.20;99.90;;;;;;5053883;28;20118;-81
2023/08/09 01:16:11;;;;;;;0.63;0.50;;;18.30;99.90;;;;;;5036014;28;20048;-80
2023/08/09 01:18:40;;;;;;;2.13;1.75;;;18.30;99.90;;;;;;5053212;28;20041;-80
2023/08/09 01:21:06;;;;;;;1.75;1.20;;;18.30;99.90;;;;;;5053791;28;20021;-80
2023/08/09 01:23:38;;;;;;;1.35;0.60;;;18.30;99.90;;;;;;5052869;28;20487;-80
2023/08/09 01:26:05;;;;;;;2.10;1.92;;;18.30;99.90;;;;;;5053447;28;20484;-81
2023/08/09 01:28:31;;;;;;;3.42;2.63;;;18.30;99.90;;;;;;5052094;28;20047;-81
2023/08/09 01:30:57;;;;;;;2.72;2.45;;;18.20;99.90;;;;;;5053131;28;20033;-81
2023/08/09 01:33:24;;;;;;;2.25;1.85;;;18.20;99.90;;;;;;5053676;28;20073;-80
2023/08/09 01:35:59;;;;;;;1.75;1.65;;;18.10;99.90;;;;;;5053236;28;20053;-80
2023/08/09 01:38:33;;;;;;;2.75;1.50;;;18.10;99.90;;;;;;5053404;28;20032;-80
2023/08/09 01:41:00;;;;;;;1.67;1.58;;;18.10;99.90;;;;;;5053617;28;20029;-80
2023/08/09 01:43:26;;;;;;;1.90;1.80;;;18.10;99.90;;;;;;5055986;28;20041;-81
2023/08/09 01:45:52;;;;;;;2.35;1.80;;;18.10;99.90;;;;;;5056877;28;20033;-81
2023/08/09 01:48:18;;;;;;;1.30;1.20;;;18.10;99.90;;;;;;5056752;28;20036;-80
2023/08/09 01:50:45;;;;;;;3.08;2.25;;;18.10;99.90;;;;;;5056785;28;20033;-81
2023/08/09 01:53:11;;;;;;;6.50;4.40;;;18.00;99.90;;;;;;5056917;28;20120;-81
2023/08/09 01:55:38;;;;;;;3.90;3.05;;;18.00;99.90;;;;;;5056320;28;20458;-81
2023/08/09 01:58:04;;;;;;;5.78;4.78;;;17.90;99.90;;;;;;5056412;28;20025;-81
2023/08/09 02:00:30;;;;;;;1.80;1.65;;;17.80;99.90;;;;;;5056345;28;20025;-80
2023/08/09 02:02:55;;;;;;;2.28;2.08;;;17.80;99.90;;;;;;5056608;28;20086;-81
2023/08/09 02:05:21;;;;;;;3.05;2.75;;;17.80;99.90;;;;;;5055392;28;20056;-81
2023/08/09 02:07:47;;;;;;;3.88;3.53;;;17.80;99.90;;;;;;5056237;28;20040;-81
2023/08/09 02:10:13;;;;;;;5.93;5.35;;;17.80;99.90;;;;;;5055887;28;20036;-81
2023/08/09 02:12:40;;;;;;;5.95;5.30;;;17.80;99.90;;;;;;5056143;28;20033;-81
2023/08/09 02:15:07;;;;;;;4.45;4.05;;;17.70;99.90;;;;;;5056821;28;20159;-81
2023/08/09 02:17:33;;;;;;;9.20;6.70;;;17.70;99.90;;;;;;5056551;28;20027;-80
2023/08/09 02:19:59;;;;;;;8.50;6.18;;;17.70;99.90;;;;;;5054697;28;20029;-82
2023/08/09 02:22:25;;;;;;;5.13;4.55;;;17.60;99.90;;;;;;5038924;28;20051;-81
2023/08/09 02:24:52;;;;;;;4.82;4.43;;;17.60;99.90;;;;;;5055834;28;20029;-81
2023/08/09 02:27:17;;;;;;;3.60;3.30;;;17.50;99.90;;;;;;5054942;28;20033;-81
2023/08/09 02:29:43;;;;;;;5.03;4.53;;;17.50;99.90;;;;;;5055519;28;20037;-81
2023/08/09 02:32:09;;;;;;;7.10;5.78;;;17.50;99.90;;;;;;5055746;28;20025;-81
2023/08/09 02:34:35;;;;;;;4.57;3.88;;;17.50;99.90;;;;;;5054171;28;20056;-82
2023/08/09 02:37:00;;;;;;;8.23;5.82;;;17.50;99.90;;;;;;5055652;28;20068;-81
2023/08/09 02:39:26;;;;;;;8.02;6.57;;;17.50;99.90;;;;;;5055667;28;20423;-82
2023/08/09 02:41:52;;;;;;;3.78;3.15;;;17.50;99.90;;;;;;5055585;28;20128;-82
2023/08/09 02:44:17;;;;;;;4.53;4.13;;;17.40;99.90;;;;;;5055565;28;20029;-81
2023/08/09 02:46:43;;;;;;;9.55;7.60;;;17.40;99.90;;;;;;5055793;28;20504;-84
2023/08/09 02:49:08;;;;;;;8.18;6.85;;;17.40;99.90;;;;;;5037480;28;20029;-82
2023/08/09 02:51:34;;;;;;;10.55;8.27;;;17.30;99.90;;;;;;5055639;28;20033;-82
2023/08/09 02:54:02;;;;;;;8.32;6.70;;;17.30;99.90;;;;;;5055308;28;20044;-81
2023/08/09 02:56:29;;;;;;;12.27;7.18;;;17.30;99.90;;;;;;5055289;28;20397;-82
2023/08/09 02:58:56;;;;;;;6.05;5.35;;;17.20;99.90;;;;;;5055217;28;20350;-82
2023/08/09 03:01:22;;;;;;;8.13;6.45;;;17.20;99.90;;;;;;5054947;28;20408;-82
2023/08/09 03:03:50;;;;;;;10.02;7.63;;;17.20;99.90;;;;;;5054420;28;20460;-80
2023/08/09 03:06:17;;;;;;;6.97;5.20;;;17.20;99.90;;;;;;5054374;28;20120;-82
2023/08/09 03:08:46;;;;;;;11.48;8.50;;;17.20;99.90;;;;;;5055321;28;20033;-81
2023/08/09 03:11:11;;;;;;;12.32;9.25;;;17.20;99.90;;;;;;5054699;28;20076;-82
2023/08/09 03:13:37;;;;;;;7.85;5.85;;;17.10;99.90;;;;;;5055231;28;20057;-81
2023/08/09 03:16:03;;;;;;;14.25;9.70;;;17.00;99.90;;;;;;5054872;28;20489;-81
2023/08/09 03:18:29;;;;;;;12.23;9.77;;;17.00;99.90;;;;;;5054778;28;20040;-82
2023/08/09 03:20:54;;;;;;;16.33;10.95;;;17.00;99.90;;;;;;5053830;28;20025;-81
2023/08/09 03:23:20;;;;;;;8.50;6.00;;;16.90;99.90;;;;;;5055023;28;20382;-81
2023/08/09 03:25:45;;;;;;;9.88;7.80;;;16.80;99.90;;;;;;5054747;28;20037;-81
2023/08/09 03:28:11;;;;;;;11.43;9.00;;;16.90;99.90;;;;;;5054691;28;20091;-81
2023/08/09 03:30:37;;;;;;;10.25;8.48;;;16.90;99.90;;;;;;5054646;28;20064;-81
2023/08/09 03:33:04;;;;;;;15.10;11.88;;;17.00;99.90;;;;;;5054461;28;20120;-81
2023/08/09 03:35:29;;;;;;;10.32;8.27;;;16.90;99.90;;;;;;5052989;28;20065;-80
2023/08/09 03:37:55;;;;;;;8.57;6.70;;;17.00;99.90;;;;;;5054530;28;20464;-81
2023/08/09 03:40:21;;;;;;;4.72;4.22;;;17.00;99.90;;;;;;5054743;28;20492;-81
2023/08/09 03:42:46;;;;;;;14.40;8.77;;;17.00;99.90;;;;;;5054695;28;20033;-81
2023/08/09 03:45:12;;;;;;;8.75;6.43;;;17.10;99.90;;;;;;5053188;28;20033;-81
2023/08/09 03:47:38;;;;;;;17.15;9.77;;;17.10;99.90;;;;;;5053961;28;20021;-81
2023/08/09 03:50:06;;;;;;;11.98;8.73;;;17.10;99.90;;;;;;5052923;28;20079;-80
2023/08/09 03:52:33;;;;;;;21.85;12.27;;;17.10;99.90;;;;;;5054209;28;20029;-81
2023/08/09 03:54:58;;;;;;;15.65;10.48;;;17.10;99.90;;;;;;5053921;28;20025;-81
2023/08/09 03:57:24;;;;;;;15.45;11.95;;;17.00;99.90;;;;;;5053743;28;20036;-81
2023/08/09 03:59:50;;;;;;;9.88;7.80;;;17.00;99.90;;;;;;5054158;28;20112;-81
2023/08/09 04:02:17;;;;;;;10.10;7.32;;;17.00;99.90;;;;;;5054159;28;20025;-81
2023/08/09 04:04:43;;;;;;;27.67;13.10;;;17.00;99.90;;;;;;5053888;28;20039;-81
2023/08/09 04:07:09;;;;;;;12.88;9.32;;;17.00;99.90;;;;;;5054052;28;20099;-81
2023/08/09 04:09:35;;;;;;;14.77;9.48;;;17.00;99.90;;;;;;5054246;28;20064;-81
2023/08/09 04:12:03;;;;;;;15.35;11.63;;;16.90;99.90;;;;;;5053740;28;20060;-82
2023/08/09 04:14:29;;;;;;;10.50;8.20;;;16.90;99.90;;;;;;5053582;28;20419;-82
2023/08/09 04:16:55;;;;;;;14.57;10.48;;;16.80;99.90;;;;;;5052700;28;20111;-81
2023/08/09 04:19:20;;;;;;;15.90;10.45;;;16.80;99.90;;;;;;5054358;28;20033;-81
2023/08/09 04:21:46;;;;;;;15.02;11.55;;;16.70;99.90;;;;;;5054113;28;20381;-81
2023/08/09 04:24:12;;;;;;;7.95;6.45;;;16.80;99.90;;;;;;5052982;28;20457;-81
2023/08/09 04:26:38;;;;;;;25.20;10.82;;;16.80;99.90;;;;;;5053768;28;20037;-81
2023/08/09 04:29:04;;;;;;;13.02;8.55;;;16.70;99.90;;;;;;5054328;28;20104;-81
2023/08/09 04:31:38;;;;;;;17.15;9.63;;;16.80;99.90;;;;;;5053718;28;20466;-80
2023/08/09 04:34:04;;;;;;;14.00;9.07;;;16.80;99.90;;;;;;5053749;28;20029;-81
2023/08/09 04:36:31;;;;;;;8.77;6.72;;;16.80;99.90;;;;;;5053565;28;20037;-81
2023/08/09 04:38:57;;;;;;;17.77;10.73;;;16.80;99.90;;;;;;5053156;28;20461;-81
2023/08/09 04:41:23;;;;;;;11.23;7.95;;;16.70;99.90;;;;;;5053942;28;20466;-81
2023/08/09 04:43:50;;;;;;;10.63;8.73;;;16.70;99.90;;;;;;5053474;28;20025;-81
2023/08/09 04:46:19;;;;;;;7.88;5.38;;;16.70;99.90;;;;;;5052720;28;20457;-81
2023/08/09 04:48:44;;;;;;;8.95;6.50;;;16.60;99.90;;;;;;5053233;28;20037;-80
2023/08/09 04:51:10;;;;;;;9.52;7.10;;;16.50;99.90;;;;;;5053286;28;20040;-80
2023/08/09 04:53:37;;;;;;;8.60;6.63;;;16.50;99.90;;;;;;5053240;28;20052;-79
2023/08/09 04:56:06;;;;;;;12.30;9.23;;;16.60;99.90;;;;;;5053281;28;20025;-81
2023/08/09 04:58:32;;;;;;;14.20;10.35;;;16.60;99.90;;;;;;5053606;28;20032;-81
2023/08/09 05:00:58;;;;;;;15.30;10.52;;;16.60;99.90;;;;;;5053488;28;20029;-80
2023/08/09 05:03:24;;;;;;;12.65;9.63;;;16.50;99.90;;;;;;5054096;28;20353;-81
2023/08/09 05:05:49;;;;;;;18.33;11.07;;;16.50;99.90;;;;;;5053189;28;20088;-81
2023/08/09 05:08:15;;;;;;;17.75;11.43;;;16.50;99.90;;;;;;5051807;28;20029;-81
2023/08/09 05:10:41;;;;;;;18.48;11.35;;;16.50;99.90;;;;;;5053559;28;20028;-81
2023/08/09 05:13:07;;;;;;;20.23;12.80;;;16.50;99.90;;;;;;5053540;28;20103;-81
2023/08/09 05:15:32;;;;;;;17.42;11.30;;;16.50;99.90;;;;;;5053250;28;20037;-81
2023/08/09 05:17:58;;;;;;;14.35;10.13;;;16.50;99.90;;;;;;5054848;28;20037;-81
2023/08/09 05:20:24;;;;;;;16.83;10.98;;;16.50;99.90;;;;;;5057013;28;20032;-81
2023/08/09 05:22:50;;;;;;;14.95;10.85;;;16.50;99.90;;;;;;5056246;28;20056;-81
2023/08/09 05:25:17;;;;;;;20.05;13.07;;;16.50;99.90;;;;;;5056865;28;20473;-80
2023/08/09 05:27:48;;;;;;;23.40;15.90;;;16.60;99.90;;;;;;5056637;28;20025;-80
2023/08/09 05:30:18;;;;;;;24.88;14.50;;;16.60;99.90;;;;;;5057113;28;20025;-80
2023/08/09 05:32:45;;;;;;;24.77;15.98;;;16.60;99.90;;;;;;5056448;28;20394;-80
2023/08/09 05:35:11;;;;;;;22.77;14.57;;;16.60;99.90;;;;;;5056923;28;20155;-81
2023/08/09 05:37:37;;;;;;;13.32;10.00;;;16.60;99.90;;;;;;5055626;28;20060;-81
2023/08/09 05:40:05;;;;;;;24.42;15.43;;;16.60;99.90;;;;;;5056839;28;20063;-81
2023/08/09 05:42:31;;;;;;;28.63;15.85;;;16.60;99.90;;;;;;5056590;28;20021;-81
2023/08/09 05:44:59;;;;;;;20.75;14.07;;;16.60;99.90;;;;;;5056765;28;20033;-81
2023/08/09 05:47:24;;;;;;;24.60;15.98;;;16.60;99.90;;;;;;5055642;28;20496;-80
2023/08/09 05:49:50;;;;;;;24.92;14.98;;;16.60;99.90;;;;;;5056355;28;20037;-80
2023/08/09 05:52:16;;;;;;;23.25;13.73;;;16.60;99.90;;;;;;5055248;28;20127;-81
2023/08/09 05:54:42;;;;;;;23.98;13.90;;;16.60;99.90;;;;;;5056270;28;20116;-80
2023/08/09 05:57:07;;;;;;;17.38;11.35;;;16.60;99.90;;;;;;5056834;28;20029;-80
2023/08/09 05:59:33;;;;;;;18.67;10.75;;;16.50;99.90;;;;;;5056634;28;20457;-81
2023/08/09 06:01:59;;;;;;;19.95;11.60;;;16.50;99.90;;;;;;5056170;28;20033;-81
2023/08/09 06:04:24;;;;;;;20.38;11.00;;;16.50;99.90;;;;;;5055906;28;20109;-81
2023/08/09 06:06:50;;;;;;;23.25;13.23;;;16.50;99.90;;;;;;5054926;28;20033;-80
2023/08/09 06:09:16;;;;;;;16.05;10.98;;;16.60;99.90;;;;;;5056101;28;20025;-80
2023/08/09 06:11:41;;;;;;;19.88;11.38;;;16.60;99.90;;;;;;5056459;28;20083;-81
2023/08/09 06:14:07;;;;;;;22.05;12.25;;;16.70;99.90;;;;;;5056094;28;20033;-80
2023/08/09 06:16:34;;;;;;;20.52;12.07;;;16.70;99.90;;;;;;5055812;28;20431;-81
2023/08/09 06:19:00;;;;;;;23.05;12.90;;;16.80;99.90;;;;;;5055610;28;20448;-81
2023/08/09 06:21:26;;;;;;;19.42;11.75;;;16.80;99.90;;;;;;5055600;28;20033;-80
2023/08/09 06:23:51;;;;;;;19.13;11.75;;;16.70;99.90;;;;;;5055536;28;20061;-81
2023/08/09 06:26:17;;;;;;;21.05;12.32;;;16.80;99.90;;;;;;5055744;28;20044;-81
2023/08/09 06:28:43;;;;;;;25.50;15.75;;;16.80;99.90;;;;;;5054224;28;20037;-81
2023/08/09 06:31:08;;;;;;;15.68;10.05;;;16.80;99.90;;;;;;5055467;28;20033;-81
2023/08/09 06:33:41;;;;;;;13.43;7.90;;;16.80;99.90;;;;;;5056023;28;20041;-81
2023/08/09 06:36:07;;;;;;;26.42;14.77;;;16.80;99.90;;;;;;5056273;28;20088;-80
2023/08/09 06:38:33;;;;;;;29.30;15.70;;;16.90;99.90;;;;;;5055888;28;20073;-80
2023/08/09 06:40:59;;;;;;;25.77;14.68;;;16.90;99.90;;;;;;5054486;28;20064;-80
2023/08/09 06:43:25;;;;;;;29.50;14.93;;;16.90;99.90;;;;;;5055638;28;20126;-80
2023/08/09 06:45:51;;;;;;;21.65;13.80;;;17.00;99.90;;;;;;5055771;28;20159;-80
2023/08/09 06:48:17;;;;;;;30.70;18.20;;;16.90;99.90;;;;;;5055406;28;20025;-79
2023/08/09 06:50:43;;;;;;;27.80;14.55;;;16.90;99.90;;;;;;5055656;28;20040;-80
2023/08/09 06:53:08;;;;;;;31.98;17.30;;;17.00;99.90;;;;;;5054769;28;20029;-80
2023/08/09 06:55:34;;;;;;;27.33;16.88;;;17.00;99.90;;;;;;5037572;28;20519;-80
2023/08/09 06:58:00;;;;;;;25.80;14.95;;;17.00;99.90;;;;;;5054097;28;20119;-80
2023/08/09 07:00:26;;;;;;;15.55;9.57;;;17.00;99.90;;;;;;5055586;28;20358;-80
2023/08/09 07:02:52;;;;;;;13.95;10.23;;;17.00;99.90;;;;;;5037411;28;20072;-80
2023/08/09 07:05:21;;;;;;;14.73;9.82;;;17.00;99.90;;;;;;5054015;28;20060;-80
2023/08/09 07:07:51;;;;;;;18.65;12.13;;;17.20;99.90;;;;;;5055114;28;20033;-80
2023/08/09 07:10:17;;;;;;;17.88;12.02;;;17.20;99.90;;;;;;5055105;28;20033;-80
2023/08/09 07:12:43;;;;;;;17.75;11.10;;;17.20;99.90;;;;;;5054718;28;20497;-80
2023/08/09 07:15:10;;;;;;;12.88;8.38;;;17.20;99.90;;;;;;5054995;28;20036;-80
2023/08/09 07:17:36;;;;;;;16.75;10.23;;;17.30;99.90;;;;;;5055003;28;20025;-79
2023/08/09 07:20:21;;;;;;;16.92;11.38;;;17.30;99.90;;;;;;5055214;28;20351;-80
2023/08/09 07:22:47;;;;;;;10.02;7.75;;;17.30;99.90;;;;;;5055276;28;20062;-80
2023/08/09 07:25:13;;;;;;;10.75;7.78;;;17.30;99.90;;;;;;5054917;28;20033;-80
2023/08/09 07:27:43;;;;;;;8.80;6.20;;;17.40;99.90;;;;;;5054274;28;20025;-80
2023/08/09 07:30:11;;;;;;;11.85;8.10;;;17.40;99.90;;;;;;5054901;28;20114;-78
2023/08/09 07:32:38;;;;;;;9.50;6.85;;;17.50;99.90;;;;;;5054682;28;20029;-80
2023/08/09 07:35:05;;;;;;;15.45;10.57;;;17.60;99.90;;;;;;5054343;28;20049;-75
2023/08/09 07:37:33;;;;;;;12.02;8.00;;;17.60;99.90;;;;;;5054319;28;20084;-75
2023/08/09 07:39:58;;;;;;;10.13;8.02;;;17.60;99.90;;;;;;5054014;28;20088;-75
2023/08/09 07:42:24;;;;;;;10.40;7.78;;;17.60;99.90;;;;;;5054681;28;20135;-80
2023/08/09 07:44:50;;;;;;;10.32;7.50;;;17.70;99.90;;;;;;5054267;28;20037;-79
2023/08/09 07:47:16;;;;;;;7.10;6.13;;;17.70;99.90;;;;;;5054846;28;20029;-80
2023/08/09 07:49:42;;;;;;;10.88;8.45;;;17.80;99.90;;;;;;5054525;28;20446;-79
2023/08/09 07:52:08;;;;;;;8.95;7.07;;;17.80;99.90;;;;;;5054539;28;20040;-81
2023/08/09 07:54:34;;;;;;;9.55;5.82;;;17.90;99.90;;;;;;5054602;28;20047;-80
2023/08/09 07:56:59;;;;;;;9.57;5.45;;;17.90;99.90;;;;;;5054812;28;20029;-80
2023/08/09 07:59:25;;;;;;;12.82;9.35;;;17.90;99.90;;;;;;5054291;28;20454;-79
2023/08/09 08:01:51;;;;;;;9.75;7.95;;;18.00;99.90;;;;;;5055049;28;20446;-79
2023/08/09 08:04:16;;;;;;;13.23;9.02;;;18.10;99.90;;;;;;5052739;28;20025;-80
2023/08/09 08:06:42;;;;;;;13.52;10.20;;;18.10;99.90;;;;;;5052822;28;20057;-79
2023/08/09 08:09:12;;;;;;;9.90;7.60;;;18.10;99.90;;;;;;5053907;28;20104;-79
2023/08/09 08:11:39;;;;;;;17.10;12.13;;;18.10;99.90;;;;;;5054279;28;20033;-81
2023/08/09 08:14:05;;;;;;;11.25;8.65;;;18.10;99.90;;;;;;5053328;28;20065;-80
2023/08/09 08:16:31;;;;;;;9.90;8.27;;;18.10;99.90;;;;;;5053016;28;20045;-80
2023/08/09 08:18:57;;;;;;;11.88;7.57;;;18.10;99.90;;;;;;5053655;28;20036;-81
2023/08/09 08:21:22;;;;;;;9.48;7.95;;;18.10;99.90;;;;;;5054116;28;20041;-81
2023/08/09 08:23:48;;;;;;;7.00;5.82;;;18.10;99.90;;;;;;5054084;28;20477;-80
2023/08/09 08:26:15;;;;;;;10.93;8.27;;;18.20;99.90;;;;;;5053942;28;20043;-81
2023/08/09 08:28:41;;;;;;;12.75;8.63;;;18.20;99.90;;;;;;5054526;28;20032;-81
2023/08/09 08:31:07;;;;;;;11.50;8.32;;;18.30;99.90;;;;;;5054181;28;20025;-80
2023/08/09 08:33:34;;;;;;;11.02;7.03;;;18.30;99.90;;;;;;5054143;28;20099;-81
2023/08/09 08:35:59;;;;;;;8.10;6.03;;;18.30;99.90;;;;;;5054360;28;20057;-81
2023/08/09 08:38:26;;;;;;;9.25;6.93;;;18.40;99.90;;;;;;5054278;28;20481;-81
2023/08/09 08:40:54;;;;;;;8.15;6.43;;;18.40;99.90;;;;;;5052839;28;20052;-81
2023/08/09 08:43:20;;;;;;;7.28;5.25;;;18.40;99.90;;;;;;5054851;28;20037;-81
2023/08/09 08:45:49;;;;;;;9.10;6.55;;;18.40;99.90;;;;;;5053777;28;20033;-81
2023/08/09 08:48:16;;;;;;;6.88;5.45;;;18.50;99.90;;;;;;5054413;28;20090;-81
2023/08/09 08:50:44;;;;;;;6.57;5.93;;;18.60;99.90;;;;;;5054523;28;20104;-82
2023/08/09 08:53:11;;;;;;;6.20;5.15;;;18.70;99.90;;;;;;5058538;28;20029;-82
2023/08/09 08:55:37;;;;;;;6.53;5.28;;;18.90;99.90;;;;;;5058037;28;20504;-82
2023/08/09 08:58:03;;;;;;;6.70;4.82;;;19.00;99.90;;;;;;5059098;28;20457;-80
2023/08/09 09:00:29;;;;;;;7.03;5.05;;;19.10;99.90;;;;;;5058954;28;20061;-82
2023/08/09 09:02:56;;;;;;;7.03;4.38;;;19.20;99.90;;;;;;5059293;28;20114;-80
2023/08/09 09:05:23;;;;;;;6.07;4.13;;;19.30;99.90;;;;;;5059514;28;20040;-82
2023/08/09 09:07:54;;;;;;;7.72;4.03;;;19.30;99.90;;;;;;5058517;28;20436;-81
2023/08/09 09:10:20;;;;;;;7.95;4.13;;;19.30;99.90;;;;;;5058231;28;20454;-82
2023/08/09 09:12:49;;;;;;;6.25;3.70;;;19.40;99.90;;;;;;5058307;28;20485;-82
2023/08/09 09:15:15;;;;;;;7.15;3.67;;;19.40;99.90;;;;;;5056264;28;20029;-82
2023/08/09 09:17:43;;;;;;;3.53;3.22;;;19.50;99.90;;;;;;5057967;28;20033;-82
2023/08/09 09:20:24;;;;;;;5.10;2.90;;;19.50;99.90;;;;;;5064680;28;20025;-81
2023/08/09 09:22:51;;;;;;;9.05;3.83;;;19.60;99.90;;;;;;5064188;28;20219;-80
2023/08/09 09:25:17;;;;;;;5.78;3.03;;;19.80;99.90;;;;;;5062238;28;20040;-80
2023/08/09 09:27:47;;;;;;;5.20;3.45;;;19.80;99.90;;;;;;5061848;28;20025;-80
2023/08/09 09:30:19;;;;;;;5.18;2.58;;;19.80;99.90;;;;;;5062250;28;20025;-80
2023/08/09 09:32:54;;;;;;;3.35;2.47;;;20.00;99.90;;;;;;5062171;28;20032;-79
2023/08/09 09:35:28;;;;;;;2.60;1.92;;;20.10;99.90;;;;;;5060839;28;20056;-80
2023/08/09 09:38:01;;;;;;;3.97;2.38;;;20.10;99.90;;;;;;5059892;28;20029;-80
2023/08/09 09:40:31;;;;;;;3.33;1.80;;;20.10;99.90;;;;;;5060245;28;20035;-80
2023/08/09 09:42:58;;;;;;;2.67;1.30;;;20.10;99.90;;;;;;5059614;28;20481;-80
2023/08/09 09:45:27;;;;;;;2.05;1.58;;;20.00;99.90;;;;;;5059575;28;20469;-79
2023/08/09 09:47:54;;;;;;;5.05;2.13;;;20.00;99.90;;;;;;5058797;28;20489;-80
2023/08/09 09:50:24;;;;;;;1.98;1.30;;;19.90;99.90;;;;;;5059267;28;20350;-80
2023/08/09 09:52:50;;;;;;;5.00;2.70;;;19.90;99.90;;;;;;5059434;28;20036;-80
2023/08/09 09:55:20;;;;;;;4.13;2.10;;;19.90;99.90;;;;;;5058992;28;20033;-79
2023/08/09 09:57:47;;;;;;;6.35;2.45;;;20.00;99.90;;;;;;5057937;28;20085;-80
2023/08/09 10:00:19;;;;;;;2.70;2.10;;;20.10;99.90;;;;;;5058625;28;20031;-80
2023/08/09 10:02:47;;;;;;;2.70;1.52;;;20.10;99.90;;;;;;5057034;28;20025;-79
2023/08/09 10:05:18;;;;;;;3.60;2.25;;;20.20;99.90;;;;;;5057428;28;20095;-80
2023/08/09 10:07:45;;;;;;;3.40;2.35;;;20.30;99.90;;;;;;5057111;28;20025;-79
2023/08/09 10:10:12;;;;;;;5.05;2.00;;;20.40;99.90;;;;;;5059115;28;20036;-80
2023/08/09 10:12:43;;;;;;;2.20;1.38;;;20.40;99.90;;;;;;5059252;28;20053;-79
2023/08/09 10:15:12;;;;;;;3.28;1.90;;;20.40;99.90;;;;;;5057039;28;20036;-79
2023/08/09 10:17:39;;;;;;;4.57;1.63;;;20.40;99.90;;;;;;5060318;28;20084;-80
2023/08/09 10:20:08;;;;;;;2.40;1.30;;;20.30;99.90;;;;;;5058334;28;20109;-79
2023/08/09 10:22:33;;;;;;;5.45;1.55;;;20.30;99.90;;;;;;5059637;28;20028;-78
2023/08/09 10:24:59;;;;;;;3.22;0.90;;;20.20;99.90;;;;;;5058318;28;20462;-79
2023/08/09 10:27:51;;;;;;;1.95;0.90;;;20.20;99.90;;;;;;5058565;28;20029;-80
2023/08/09 10:30:19;;;;;;;3.05;0.88;;;20.20;99.90;;;;;;5060258;28;20025;-78
2023/08/09 10:32:53;;;;;;;2.58;1.10;;;20.20;99.90;;;;;;5058941;28;20094;-78
2023/08/09 10:35:50;;;;;;;3.22;1.20;;;20.20;99.90;;;;;;5058650;28;20064;-79
2023/08/09 10:38:19;;;;;;;4.32;1.10;;;20.10;99.90;;;;;;5059309;28;20029;-80
2023/08/09 10:40:50;;;;;;;3.10;0.93;;;20.10;99.90;;;;;;5057317;28;20068;-79
2023/08/09 10:43:22;;;;;;;2.10;0.82;;;20.10;99.90;;;;;;5058123;28;20021;-77
2023/08/09 10:45:49;;;;;;;2.35;1.00;;;20.10;99.90;;;;;;5057669;28;20035;-79
2023/08/09 10:48:23;;;;;;;2.08;0.80;;;20.10;99.90;;;;;;5056853;28;20044;-80
2023/08/09 10:51:08;;;;;;;2.42;1.17;;;20.10;99.90;;;;;;5057522;28;20021;-79
2023/08/09 10:53:59;;;;;;;2.38;0.80;;;20.20;99.90;;;;;;5057661;28;20492;-80
2023/08/09 10:56:47;;;;;;;3.22;1.02;;;20.20;99.90;;;;;;5056803;28;20495;-79
2023/08/09 10:59:24;;;;;;;1.98;1.25;;;20.30;99.90;;;;;;5057522;28;20033;-79
2023/08/09 11:01:51;;;;;;;3.97;1.98;;;20.40;99.90;;;;;;5057212;28;20025;-79
2023/08/09 11:04:18;;;;;;;5.32;1.40;;;20.40;99.90;;;;;;5057491;28;20370;-79
2023/08/09 11:06:46;;;;;;;1.95;1.10;;;20.40;99.90;;;;;;5056781;28;20029;-79
2023/08/09 11:09:21;;;;;;;1.58;1.17;;;20.40;99.90;;;;;;5056251;28;20035;-79
2023/08/09 11:11:48;;;;;;;3.80;1.90;;;20.40;99.90;;;;;;5057279;28;20036;-79
2023/08/09 11:14:16;;;;;;;4.15;1.60;;;20.40;99.90;;;;;;5055064;28;20025;-79
2023/08/09 11:16:43;;;;;;;3.63;1.80;;;20.50;99.90;;;;;;5056356;28;20033;-79
2023/08/09 11:19:20;;;;;;;3.70;2.10;;;20.40;99.90;;;;;;5054817;28;20032;-78
2023/08/09 11:21:56;;;;;;;2.78;1.13;;;20.40;99.90;;;;;;5055912;28;20079;-78
2023/08/09 11:24:24;;;;;;;4.70;2.13;;;20.40;99.90;;;;;;5057432;28;20138;-79
2023/08/09 11:26:57;;;;;;;4.97;2.90;;;20.40;99.90;;;;;;5057375;28;20080;-79
2023/08/09 11:29:25;;;;;;;1.92;1.67;;;20.30;99.80;;;;;;5056647;28;20372;-79
2023/08/09 11:31:53;;;;;;;4.88;2.22;;;20.30;99.90;;;;;;5056039;28;20024;-79
2023/08/09 11:34:21;;;;;;;4.07;2.88;;;20.30;99.90;;;;;;5056261;28;20025;-80
2023/08/09 11:36:48;;;;;;;7.43;3.13;;;20.30;99.90;;;;;;5058695;28;20060;-79
2023/08/09 11:39:15;;;;;;;4.45;2.67;;;20.30;99.90;;;;;;5056873;28;20028;-79
2023/08/09 11:41:59;;;;;;;4.00;2.65;;;20.30;99.40;;;;;;5054666;28;20491;-79
2023/08/09 11:44:34;;;;;;;4.47;1.92;;;20.40;99.30;;;;;;5055827;28;20028;-79
2023/08/09 11:47:01;;;;;;;4.78;2.45;;;20.40;99.50;;;;;;5055755;28;20114;-79
2023/08/09 11:49:31;;;;;;;4.13;1.92;;;20.40;99.60;;;;;;5056508;28;20025;-78
2023/08/09 11:51:59;;;;;;;6.45;2.08;;;20.50;99.70;;;;;;5055846;28;20032;-79
2023/08/09 11:54:26;;;;;;;3.40;1.73;;;20.70;99.90;;;;;;5055756;28;20029;-78
2023/08/09 11:56:52;;;;;;;2.35;1.45;;;20.80;99.30;;;;;;5055785;28;20025;-79
2023/08/09 11:59:21;;;;;;;3.55;1.60;;;20.90;98.60;;;;;;5053904;28;20025;-79
2023/08/09 12:01:50;;;;;;;4.78;1.95;;;21.00;98.50;;;;;;5054474;28;20540;-81
2023/08/09 12:04:20;;;;;;;5.10;1.88;;;21.10;98.10;;;;;;5054805;28;20048;-80
2023/08/09 12:06:49;;;;;;;2.00;1.48;;;21.10;97.80;;;;;;5054037;28;20029;-80
2023/08/09 12:09:44;;;;;;;2.20;1.58;;;21.10;97.80;;;;;;5054496;28;20057;-79
2023/08/09 12:12:17;;;;;;;6.03;1.83;;;21.10;98.10;;;;;;5040024;28;20035;-78
2023/08/09 12:14:51;;;;;;;1.90;0.90;;;21.20;98.30;;;;;;5053438;28;20056;-80
2023/08/09 12:17:30;;;;;;;1.77;1.00;;;21.50;97.90;;;;;;5054809;28;20397;-79
2023/08/09 12:19:59;;;;;;;5.50;1.20;;;21.70;97.10;;;;;;5055521;28;20025;-79
2023/08/09 12:22:25;;;;;;;2.38;0.85;;;21.90;97.00;;;;;;5054993;28;20024;-78
2023/08/09 12:24:51;;;;;;;3.30;0.90;;;22.10;96.30;;;;;;5054541;28;20044;-80
2023/08/09 12:27:19;;;;;;;2.17;0.80;;;22.20;96.20;;;;;;5054516;28;20044;-79
2023/08/09 12:29:45;;;;;;;4.03;1.10;;;22.30;95.30;;;;;;5053344;28;20032;-79
2023/08/09 12:32:11;;;;;;;4.75;1.08;;;22.40;94.40;;;;;;5054069;28;20033;-78
2023/08/09 12:34:37;;;;;;;1.55;0.57;;;22.40;93.80;;;;;;5054637;28;20052;-79
2023/08/09 12:37:05;;;;;;;1.67;0.65;;;22.40;94.00;;;;;;5038028;28;20053;-81
2023/08/09 12:39:30;;;;;;;2.40;0.90;;;22.40;94.40;;;;;;5071336;28;20543;-79
2023/08/09 12:41:56;;;;;;;2.63;0.80;;;22.20;94.00;;;;;;5055150;28;20036;-80